Time;durP1;ratioP1;P1;durP2;ratioP2;P2;SDS_P1;SDS_P2;PMS_P1;PMS_P2;Temp;Humidity;BMP_temperature;BMP_pressure;BME280_temperature;BME280_humidity;BME280_pressure;Samples;Min_cycle;Max_cycle;Signal;HPM_P1;HPM_P2
2022/03/01 00:00:53;;;;;;;1.38;0.95;;;;;;;6.64;49.12;102316.25;5216782;28;20036;-78
2022/03/01 00:03:24;;;;;;;1.55;1.45;;;;;;;6.61;48.53;102311.88;5239454;28;20035;-77
2022/03/01 00:05:54;;;;;;;0.80;0.80;;;;;;;6.54;48.73;102310.91;5201005;28;20165;-76
2022/03/01 00:08:28;;;;;;;0.70;0.70;;;;;;;6.45;48.44;102313.38;5220384;28;20028;-76
2022/03/01 00:10:59;;;;;;;1.05;1.05;;;;;;;6.52;48.05;102319.56;5233363;28;20046;-76
2022/03/01 00:13:30;;;;;;;0.60;0.60;;;;;;;6.53;48.08;102309.16;5220122;28;20035;-76
2022/03/01 00:16:00;;;;;;;2.33;2.10;;;;;;;6.43;48.59;102310.75;5222327;28;20347;-77
2022/03/01 00:18:33;;;;;;;0.82;0.82;;;;;;;6.44;48.70;102314.22;5230936;28;20024;-77
2022/03/01 00:21:06;;;;;;;1.67;1.17;;;;;;;6.40;49.04;102315.03;5230664;28;20040;-77
2022/03/01 00:23:37;;;;;;;2.20;2.00;;;;;;;6.34;49.33;102307.09;5217382;28;20112;-77
2022/03/01 00:26:08;;;;;;;0.80;0.80;;;;;;;6.28;49.58;102303.53;5236567;28;20039;-78
2022/03/01 00:28:38;;;;;;;0.57;0.57;;;;;;;6.27;49.79;102303.53;5202532;28;20039;-77
2022/03/01 00:31:09;;;;;;;0.75;0.75;;;;;;;6.29;48.74;102305.31;5251586;28;20091;-77
2022/03/01 00:33:40;;;;;;;1.75;1.65;;;;;;;6.26;49.39;102300.03;5255324;28;20203;-76
2022/03/01 00:36:10;;;;;;;4.95;2.22;;;;;;;6.22;48.92;102300.84;5231302;28;20037;-80
2022/03/01 00:38:43;;;;;;;5.07;1.85;;;;;;;6.19;48.84;102292.09;5255991;28;20040;-79
2022/03/01 00:41:14;;;;;;;1.15;0.88;;;;;;;6.13;49.19;102295.47;5233847;28;20043;-78
2022/03/01 00:43:44;;;;;;;0.80;0.80;;;;;;;6.14;50.10;102297.25;5230425;28;20032;-77
2022/03/01 00:46:15;;;;;;;0.47;0.47;;;;;;;6.12;49.62;102302.41;5254602;28;20044;-77
2022/03/01 00:48:46;;;;;;;2.17;1.98;;;;;;;6.16;49.34;102302.47;5226347;28;20402;-76
2022/03/01 00:51:16;;;;;;;1.25;1.25;;;;;;;6.07;49.85;102287.56;5193452;28;20029;-78
2022/03/01 00:53:47;;;;;;;1.40;1.40;;;;;;;5.97;50.65;102294.28;5238569;28;20055;-79
2022/03/01 00:56:18;;;;;;;2.38;1.55;;;;;;;5.97;50.04;102294.28;5214560;28;20123;-76
2022/03/01 00:58:49;;;;;;;1.13;1.13;;;;;;;5.98;50.01;102293.44;5208911;28;20047;-76
2022/03/01 01:01:20;;;;;;;2.22;1.58;;;;;;;5.97;49.38;102295.19;5227198;28;20107;-79
2022/03/01 01:03:51;;;;;;;0.70;0.70;;;;;;;5.97;49.60;102289.97;5206712;28;20115;-79
2022/03/01 01:06:25;;;;;;;10.80;1.75;;;;;;;5.79;50.40;102289.66;5198940;28;20105;-79
2022/03/01 01:08:58;;;;;;;0.68;0.68;;;;;;;5.66;49.70;102289.41;5239977;28;20048;-76
2022/03/01 01:11:34;;;;;;;4.45;2.83;;;;;;;5.76;50.15;102282.66;5202832;28;20104;-76
2022/03/01 01:14:04;;;;;;;3.08;2.05;;;;;;;5.65;50.37;102285.06;5234824;28;20089;-76
2022/03/01 01:16:35;;;;;;;3.28;2.55;;;;;;;5.69;49.87;102280.78;5217586;28;20032;-75
2022/03/01 01:19:06;;;;;;;1.58;1.48;;;;;;;5.57;50.69;102265.81;5213255;28;20034;-78
2022/03/01 01:24:27;;;;;;;1.20;1.20;;;;;;;5.51;50.52;102260.47;5206185;28;20469;-76
2022/03/01 01:26:57;;;;;;;1.00;1.00;;;;;;;5.36;50.00;102251.53;5211471;28;20035;-77
2022/03/01 01:29:28;;;;;;;2.85;2.28;;;;;;;5.52;49.54;102257.03;5256556;28;20071;-76
2022/03/01 01:31:58;;;;;;;1.75;1.60;;;;;;;5.38;50.08;102263.72;5221117;28;20447;-76
2022/03/01 01:34:29;;;;;;;2.42;2.25;;;;;;;4.48;51.16;102277.44;5243042;28;20069;-76
2022/03/01 01:36:59;;;;;;;1.90;1.67;;;;;;;4.20;52.59;102287.16;5205923;28;20047;-75
2022/03/01 01:39:30;;;;;;;2.67;1.30;;;;;;;4.40;52.01;102275.53;5214806;28;20801;-78
2022/03/01 01:42:01;;;;;;;1.70;1.60;;;;;;;4.67;51.92;102277.00;5239177;28;20087;-77
2022/03/01 01:44:32;;;;;;;1.92;1.83;;;;;;;4.77;51.22;102285.00;5231100;28;20063;-77
2022/03/01 01:47:03;;;;;;;1.00;1.00;;;;;;;4.81;50.96;102289.44;5258920;28;20024;-76
2022/03/01 01:49:34;;;;;;;1.02;1.02;;;;;;;4.55;51.46;102279.34;5238318;28;20051;-77
2022/03/01 01:52:05;;;;;;;2.47;1.98;;;;;;;4.76;51.38;102284.13;5259647;28;20054;-76
2022/03/01 01:54:36;;;;;;;1.27;1.27;;;;;;;4.93;50.64;102286.22;5210884;28;20096;-76
2022/03/01 01:57:33;;;;;;;2.83;2.60;;;;;;;4.96;50.01;102287.16;5224207;28;20031;-76
2022/03/01 02:00:05;;;;;;;2.33;1.90;;;;;;;5.02;50.79;102271.69;5214142;28;20036;-76
2022/03/01 02:02:38;;;;;;;1.77;1.52;;;;;;;5.04;50.01;102269.13;5215012;28;20105;-79
2022/03/01 02:05:09;;;;;;;1.85;1.55;;;;;;;5.12;50.75;102266.66;5219552;28;20036;-78
2022/03/01 02:07:48;;;;;;;2.00;1.90;;;;;;;5.07;50.35;102263.97;5230839;28;20028;-76
2022/03/01 02:10:19;;;;;;;1.08;1.08;;;;;;;5.06;51.03;102266.56;5243163;28;20081;-78
2022/03/01 02:12:49;;;;;;;0.52;0.52;;;;;;;5.04;51.26;102270.00;5243596;28;20028;-77
2022/03/01 02:15:23;;;;;;;1.67;1.58;;;;;;;5.12;51.10;102272.78;5241090;28;20507;-77
2022/03/01 02:17:54;;;;;;;1.05;1.05;;;;;;;5.10;50.41;102273.56;5226911;28;20015;-76
2022/03/01 02:20:25;;;;;;;3.40;2.55;;;;;;;5.04;50.42;102277.81;5241391;28;20050;-76
2022/03/01 02:22:56;;;;;;;2.25;2.05;;;;;;;5.06;50.36;102274.34;5262567;28;20076;-78
2022/03/01 02:25:26;;;;;;;1.85;1.75;;;;;;;5.12;50.70;102274.47;5220529;28;20072;-78
2022/03/01 02:27:57;;;;;;;1.75;1.67;;;;;;;5.01;50.33;102282.94;5265936;28;20385;-79
2022/03/01 02:30:28;;;;;;;1.65;1.55;;;;;;;5.02;50.63;102286.44;5231724;28;20040;-75
2022/03/01 02:32:59;;;;;;;1.38;1.38;;;;;;;5.06;50.33;102271.75;5237956;28;20039;-76
2022/03/01 02:35:29;;;;;;;0.82;0.82;;;;;;;4.96;51.08;102271.56;5219693;28;20043;-77
2022/03/01 02:38:03;;;;;;;2.40;2.20;;;;;;;4.96;50.78;102263.75;5206983;28;20020;-76
2022/03/01 02:40:34;;;;;;;0.60;0.60;;;;;;;4.87;51.67;102258.34;5218092;28;20491;-77
2022/03/01 02:43:05;;;;;;;0.90;0.90;;;;;;;4.89;50.90;102260.13;5237599;28;20087;-76
2022/03/01 02:45:39;;;;;;;1.38;1.35;;;;;;;4.91;51.02;102262.78;5228863;28;20044;-78
2022/03/01 02:48:09;;;;;;;0.73;0.73;;;;;;;4.90;50.65;102255.84;5232582;28;20040;-75
2022/03/01 02:50:40;;;;;;;3.78;1.88;;;;;;;4.92;51.29;102248.91;5237036;28;20044;-76
2022/03/01 02:53:10;;;;;;;2.20;2.00;;;;;;;4.81;52.48;102240.91;5239514;28;20063;-76
2022/03/01 02:55:41;;;;;;;0.95;0.95;;;;;;;4.93;51.37;102239.41;5242050;28;20049;-76
2022/03/01 02:58:11;;;;;;;0.90;0.90;;;;;;;4.89;51.09;102243.66;5228506;28;20181;-76
2022/03/01 03:00:45;;;;;;;1.50;1.40;;;;;;;4.96;51.26;102242.09;5241256;28;20040;-76
2022/03/01 03:03:16;;;;;;;0.80;0.80;;;;;;;4.90;51.51;102242.81;5247457;28;20016;-76
2022/03/01 03:05:46;;;;;;;1.67;1.60;;;;;;;4.92;51.35;102253.25;5235912;28;20071;-77
2022/03/01 03:08:17;;;;;;;1.50;1.45;;;;;;;4.92;51.13;102243.72;5218164;28;20023;-78
2022/03/01 03:10:47;;;;;;;3.25;2.67;;;;;;;4.86;51.54;102241.00;5225423;28;20040;-78
2022/03/01 03:13:19;;;;;;;4.32;2.67;;;;;;;4.89;51.52;102243.66;5209139;28;20032;-76
2022/03/01 03:15:50;;;;;;;1.05;1.05;;;;;;;4.85;51.18;102242.72;5229999;28;20071;-75
2022/03/01 03:18:21;;;;;;;1.13;1.13;;;;;;;4.81;51.70;102250.44;5251533;28;20130;-76
2022/03/01 03:20:52;;;;;;;1.52;1.48;;;;;;;4.89;51.08;102244.53;5228230;28;20119;-76
2022/03/01 03:23:22;;;;;;;0.65;0.65;;;;;;;4.81;51.20;102247.84;5227412;28;20048;-76
2022/03/01 03:25:53;;;;;;;0.90;0.90;;;;;;;4.80;51.14;102246.06;5264076;28;20035;-80
2022/03/01 03:28:23;;;;;;;0.50;0.50;;;;;;;4.79;51.55;102246.91;5215723;28;20036;-77
2022/03/01 03:30:54;;;;;;;0.93;0.93;;;;;;;4.73;51.44;102242.44;5223704;28;20038;-80
2022/03/01 03:33:25;;;;;;;0.80;0.77;;;;;;;4.70;52.12;102245.88;5224755;28;20644;-78
2022/03/01 03:35:57;;;;;;;1.95;1.85;;;;;;;4.70;52.21;102232.00;5258322;28;20039;-78
2022/03/01 03:38:28;;;;;;;0.55;0.55;;;;;;;4.71;52.12;102232.03;5215990;28;20023;-77
2022/03/01 03:40:59;;;;;;;1.38;1.27;;;;;;;4.76;51.88;102237.34;5223162;28;20036;-76
2022/03/01 03:43:29;;;;;;;0.73;0.73;;;;;;;4.68;51.32;102234.53;5224756;28;20132;-79
2022/03/01 03:46:00;;;;;;;0.82;0.57;;;;;;;4.69;51.81;102231.09;5227752;28;20037;-78
2022/03/01 03:48:35;;;;;;;0.95;0.93;;;;;;;4.58;52.09;102232.63;5243774;28;20054;-78
2022/03/01 03:51:10;;;;;;;2.13;2.03;;;;;;;4.52;52.07;102232.47;5211220;28;20036;-78
2022/03/01 03:53:41;;;;;;;1.42;1.33;;;;;;;4.51;51.79;102225.50;5229863;28;20043;-78
2022/03/01 03:56:11;;;;;;;0.47;0.47;;;;;;;4.43;52.32;102221.84;5214860;28;20143;-77
2022/03/01 03:58:44;;;;;;;0.68;0.68;;;;;;;4.40;52.23;102228.75;5244183;28;20492;-80
2022/03/01 04:01:15;;;;;;;0.50;0.50;;;;;;;4.38;51.91;102226.97;5237073;28;20044;-76
2022/03/01 04:03:47;;;;;;;0.80;0.80;;;;;;;4.33;52.31;102226.88;5243098;28;20039;-76
2022/03/01 04:06:18;;;;;;;1.48;1.38;;;;;;;4.33;53.08;102231.16;5198871;28;20048;-76
2022/03/01 04:08:49;;;;;;;3.30;2.15;;;;;;;4.31;53.11;102233.75;5224321;28;20430;-78
2022/03/01 04:11:24;;;;;;;1.23;1.15;;;;;;;4.32;52.62;102234.59;5212333;28;20059;-76
2022/03/01 04:13:55;;;;;;;0.63;0.63;;;;;;;4.29;53.14;102244.94;5204278;28;20036;-79
2022/03/01 04:16:27;;;;;;;0.85;0.85;;;;;;;4.39;52.93;102237.41;5201799;28;20055;-76
2022/03/01 04:19:01;;;;;;;0.50;0.50;;;;;;;4.40;53.28;102243.44;5218199;28;20020;-78
2022/03/01 04:21:31;;;;;;;;;;;;;;;4.31;52.72;102244.13;5220090;28;20415;-79
2022/03/01 04:24:03;;;;;;;1.55;1.45;;;;;;;4.23;52.86;102246.53;5210057;28;19920;-76
2022/03/01 04:26:33;;;;;;;3.33;1.88;;;;;;;4.32;53.27;102234.59;5220266;28;20037;-75
2022/03/01 04:29:04;;;;;;;0.98;0.93;;;;;;;4.18;53.28;102239.47;5233805;28;20039;-77
2022/03/01 04:31:35;;;;;;;1.67;1.58;;;;;;;4.43;52.86;102227.94;5198161;28;20055;-76
2022/03/01 04:34:05;;;;;;;0.85;0.85;;;;;;;4.29;53.33;102229.34;5224795;28;20032;-77
2022/03/01 04:36:36;;;;;;;1.05;1.05;;;;;;;4.31;53.23;102235.44;5187684;28;20048;-77
2022/03/01 04:39:07;;;;;;;0.50;0.50;;;;;;;4.10;53.36;102234.09;5238253;28;20495;-76
2022/03/01 04:41:38;;;;;;;2.50;1.45;;;;;;;4.34;53.20;102233.78;5200073;28;20033;-79
2022/03/01 04:44:09;;;;;;;0.60;0.60;;;;;;;4.28;53.15;102231.06;5188019;28;20036;-80
2022/03/01 04:46:40;;;;;;;1.23;1.23;;;;;;;4.27;53.31;102238.81;5238547;28;20644;-76
2022/03/01 04:49:11;;;;;;;0.95;0.95;;;;;;;4.28;52.50;102241.44;5236531;28;20169;-76
2022/03/01 04:51:41;;;;;;;0.60;0.60;;;;;;;4.22;53.27;102241.31;5238567;28;20107;-77
2022/03/01 04:54:12;;;;;;;2.50;0.73;;;;;;;4.19;53.51;102243.81;5191630;28;20016;-77
2022/03/01 04:56:42;;;;;;;1.15;1.15;;;;;;;4.25;52.52;102237.06;5217274;28;20040;-76
2022/03/01 04:59:13;;;;;;;2.13;2.03;;;;;;;4.09;53.48;102225.41;5205172;28;20040;-76
2022/03/01 05:01:43;;;;;;;1.05;1.05;;;;;;;4.15;53.02;102229.88;5202856;28;20043;-76
2022/03/01 05:04:14;;;;;;;0.77;0.77;;;;;;;4.30;52.95;102233.72;5212713;28;20048;-76
2022/03/01 05:06:45;;;;;;;0.30;0.30;;;;;;;4.32;52.68;102227.69;5197190;28;20084;-77
2022/03/01 05:09:21;;;;;;;1.85;1.75;;;;;;;4.19;52.78;102230.84;5203631;28;20063;-77
2022/03/01 05:11:51;;;;;;;0.70;0.70;;;;;;;4.29;52.77;102235.41;5200265;28;20032;-77
2022/03/01 05:14:22;;;;;;;1.65;1.58;;;;;;;4.17;53.06;102242.94;5238434;28;20045;-78
2022/03/01 05:16:55;;;;;;;0.60;0.60;;;;;;;4.15;53.56;102239.41;5202319;28;20055;-77
2022/03/01 05:19:26;;;;;;;0.80;0.80;;;;;;;4.35;52.68;102240.75;5216002;28;20036;-79
2022/03/01 05:21:58;;;;;;;0.43;0.43;;;;;;;4.40;52.28;102244.34;5242867;28;20028;-78
2022/03/01 05:24:29;;;;;;;3.08;2.88;;;;;;;4.22;52.96;102238.72;5201462;28;20410;-80
2022/03/01 05:26:59;;;;;;;0.93;0.93;;;;;;;4.28;52.91;102235.38;5228310;28;20040;-77
2022/03/01 05:29:30;;;;;;;0.50;0.50;;;;;;;4.33;53.33;102239.84;5213860;28;20045;-79
2022/03/01 05:32:01;;;;;;;0.68;0.68;;;;;;;4.28;53.50;102238.84;5200917;28;20032;-78
2022/03/01 05:34:34;;;;;;;1.38;1.13;;;;;;;4.43;52.54;102245.25;5217503;28;20044;-77
2022/03/01 05:37:08;;;;;;;5.68;2.00;;;;;;;4.26;53.15;102245.72;5206769;28;20163;-78
2022/03/01 05:39:38;;;;;;;0.73;0.73;;;;;;;4.35;52.91;102245.94;5218986;28;20048;-79
2022/03/01 05:42:09;;;;;;;0.60;0.60;;;;;;;4.22;52.56;102259.50;5217780;28;20032;-77
2022/03/01 05:44:40;;;;;;;1.75;1.65;;;;;;;4.15;53.33;102258.47;5228412;28;20070;-78
2022/03/01 05:47:10;;;;;;;1.58;1.30;;;;;;;4.41;53.32;102251.31;5221601;28;20060;-79
2022/03/01 05:49:42;;;;;;;2.63;2.15;;;;;;;4.24;53.36;102255.22;5205252;28;20036;-79
2022/03/01 05:52:12;;;;;;;0.45;0.45;;;;;;;4.33;53.06;102251.97;5200384;28;20047;-77
2022/03/01 05:54:43;;;;;;;0.70;0.70;;;;;;;4.23;52.96;102250.88;5219925;28;21653;-81
2022/03/01 05:57:14;;;;;;;0.88;0.88;;;;;;;4.00;53.75;102243.41;5231319;28;20054;-80
2022/03/01 05:59:44;;;;;;;0.60;0.60;;;;;;;4.12;53.49;102255.81;5202289;28;20068;-77
2022/03/01 06:02:15;;;;;;;2.03;1.13;;;;;;;3.83;54.06;102250.75;5202824;28;20033;-78
2022/03/01 06:04:45;;;;;;;2.97;1.80;;;;;;;4.12;53.29;102249.72;5219168;28;20087;-80
2022/03/01 06:07:19;;;;;;;1.90;1.80;;;;;;;4.19;53.78;102243.81;5218477;28;20033;-77
2022/03/01 06:09:50;;;;;;;1.08;1.08;;;;;;;4.12;53.20;102250.63;5225759;28;20090;-78
2022/03/01 06:12:21;;;;;;;0.50;0.50;;;;;;;3.62;54.70;102249.38;5212886;28;20051;-76
2022/03/01 06:14:51;;;;;;;0.63;0.63;;;;;;;4.01;53.67;102245.13;5232073;28;20042;-81
2022/03/01 06:17:22;;;;;;;0.68;0.68;;;;;;;3.90;54.06;102242.28;5212548;28;20614;-79
2022/03/01 06:19:52;;;;;;;0.30;0.30;;;;;;;3.94;53.72;102240.63;5198886;28;20090;-77
2022/03/01 06:22:23;;;;;;;1.20;1.08;;;;;;;3.87;53.63;102244.81;5215098;28;20033;-77
2022/03/01 06:24:57;;;;;;;0.68;0.68;;;;;;;3.76;54.61;102244.53;5193659;28;20457;-78
2022/03/01 06:27:27;;;;;;;0.70;0.70;;;;;;;3.66;54.79;102245.16;5176737;28;20111;-77
2022/03/01 06:29:58;;;;;;;0.50;0.50;;;;;;;3.80;54.32;102249.81;5230175;28;20148;-77
2022/03/01 06:32:28;;;;;;;0.30;0.30;;;;;;;3.67;54.31;102249.50;5210607;28;20036;-79
2022/03/01 06:34:59;;;;;;;0.50;0.50;;;;;;;3.73;53.90;102249.66;5218472;28;20499;-78
2022/03/01 06:37:30;;;;;;;0.32;0.32;;;;;;;3.98;53.93;102258.06;5217707;28;20885;-77
2022/03/01 06:40:01;;;;;;;2.08;1.92;;;;;;;3.60;53.89;102253.66;5199937;28;20119;-79
2022/03/01 06:42:31;;;;;;;1.60;0.73;;;;;;;3.92;53.93;102255.31;5217596;28;20040;-77
2022/03/01 06:45:03;;;;;;;1.13;1.13;;;;;;;3.78;53.69;102254.97;5216374;28;20544;-78
2022/03/01 06:47:34;;;;;;;0.82;0.82;;;;;;;3.91;53.43;102253.56;5211279;28;20037;-77
2022/03/01 06:50:14;;;;;;;0.40;0.40;;;;;;;4.12;53.90;102249.72;5231194;28;20028;-80
2022/03/01 06:52:45;;;;;;;1.23;1.13;;;;;;;4.01;53.34;102255.53;5203400;28;20033;-78
2022/03/01 06:55:16;;;;;;;0.90;0.90;;;;;;;3.94;54.20;102264.00;5186623;28;20083;-77
2022/03/01 06:57:47;;;;;;;0.90;0.90;;;;;;;4.05;53.61;102248.72;5218795;28;20472;-78
2022/03/01 07:00:17;;;;;;;0.30;0.30;;;;;;;4.22;53.08;102252.56;5234697;28;20104;-80
2022/03/01 07:02:51;;;;;;;2.95;2.75;;;;;;;4.09;53.57;102255.72;5213731;28;20032;-78
2022/03/01 07:05:23;;;;;;;0.70;0.70;;;;;;;3.94;53.68;102254.50;5213594;28;20269;-79
2022/03/01 07:07:54;;;;;;;1.15;1.15;;;;;;;4.10;53.64;102252.28;5200229;28;20592;-78
2022/03/01 07:10:25;;;;;;;0.38;0.38;;;;;;;4.13;53.51;102257.56;5229408;28;20033;-77
2022/03/01 07:12:55;;;;;;;2.15;1.95;;;;;;;4.10;53.92;102255.75;5217984;28;20030;-80
2022/03/01 07:15:26;;;;;;;1.88;1.75;;;;;;;4.12;54.10;102262.72;5188833;28;20161;-78
2022/03/01 07:17:56;;;;;;;1.33;1.27;;;;;;;3.99;53.63;102267.63;5212185;28;20552;-77
2022/03/01 07:20:27;;;;;;;1.38;1.27;;;;;;;4.21;53.18;102261.25;5215655;28;20491;-79
2022/03/01 07:22:58;;;;;;;0.55;0.55;;;;;;;4.22;53.58;102262.97;5206398;28;20718;-79
2022/03/01 07:25:28;;;;;;;1.70;1.60;;;;;;;4.16;53.15;102261.97;5235596;28;20032;-77
2022/03/01 07:27:59;;;;;;;3.20;2.15;;;;;;;4.30;52.92;102265.75;5206138;28;20043;-78
2022/03/01 07:30:30;;;;;;;1.73;1.27;;;;;;;4.25;52.98;102262.19;5216351;28;20050;-77
2022/03/01 07:33:01;;;;;;;0.57;0.57;;;;;;;4.29;53.25;102269.19;5204208;28;20033;-77
2022/03/01 07:35:31;;;;;;;0.45;0.45;;;;;;;4.20;53.41;102269.88;5198707;28;20248;-79
2022/03/01 07:38:02;;;;;;;0.60;0.60;;;;;;;4.32;53.23;102278.78;5235624;28;20048;-78
2022/03/01 07:40:35;;;;;;;1.77;1.67;;;;;;;4.38;53.59;102277.22;5228416;28;20105;-77
2022/03/01 07:43:07;;;;;;;1.15;1.05;;;;;;;4.44;53.31;102267.78;5217092;28;20044;-79
2022/03/01 07:45:38;;;;;;;0.70;0.70;;;;;;;4.52;53.08;102274.06;5191036;28;20060;-80
2022/03/01 07:48:10;;;;;;;1.08;1.08;;;;;;;4.46;53.14;102273.91;5247239;28;20033;-78
2022/03/01 07:50:41;;;;;;;1.48;1.38;;;;;;;4.49;52.87;102277.47;5245488;28;20411;-77
2022/03/01 07:53:11;;;;;;;0.30;0.30;;;;;;;4.40;53.28;102270.34;5204630;28;20032;-78
2022/03/01 07:55:42;;;;;;;1.50;1.40;;;;;;;4.50;53.18;102271.44;5201785;28;20048;-77
2022/03/01 07:58:13;;;;;;;0.70;0.70;;;;;;;4.52;53.04;102267.16;5198128;28;20076;-77
2022/03/01 08:00:46;;;;;;;0.80;0.80;;;;;;;4.44;52.71;102268.69;5197118;28;20302;-78
2022/03/01 08:03:17;;;;;;;1.50;1.40;;;;;;;4.37;53.25;102270.25;5200706;28;20064;-77
2022/03/01 08:05:48;;;;;;;1.63;1.52;;;;;;;4.51;53.09;102273.19;5222224;28;20029;-79
2022/03/01 08:08:18;;;;;;;2.13;2.03;;;;;;;4.35;52.77;102268.47;5205462;28;20045;-79
2022/03/01 08:10:49;;;;;;;0.82;0.80;;;;;;;4.46;53.28;102273.91;5185273;28;20098;-77
2022/03/01 08:13:20;;;;;;;1.25;1.23;;;;;;;4.68;52.70;102280.50;5223698;28;20663;-77
2022/03/01 08:15:51;;;;;;;1.52;1.42;;;;;;;4.73;52.69;102274.56;5191385;28;20052;-80
2022/03/01 08:18:21;;;;;;;3.95;2.25;;;;;;;4.27;53.17;102273.47;5208340;28;20727;-80
2022/03/01 08:20:52;;;;;;;2.65;2.47;;;;;;;4.40;53.32;102274.63;5240959;28;20135;-76
2022/03/01 08:23:22;;;;;;;4.78;2.60;;;;;;;4.50;53.04;102278.34;5199977;28;20029;-76
2022/03/01 08:25:58;;;;;;;0.80;0.80;;;;;;;4.59;53.28;102275.94;5231792;28;20491;-76
2022/03/01 08:28:29;;;;;;;2.70;2.38;;;;;;;4.78;53.07;102285.06;5205848;28;20101;-76
2022/03/01 08:31:00;;;;;;;1.10;1.02;;;;;;;4.77;53.04;102282.41;5233070;28;20081;-78
2022/03/01 08:33:30;;;;;;;2.95;1.60;;;;;;;4.82;52.59;102286.88;5205675;28;20152;-77
2022/03/01 08:36:01;;;;;;;1.90;1.80;;;;;;;4.93;53.26;102276.69;5206733;28;20057;-79
2022/03/01 08:38:31;;;;;;;1.05;1.05;;;;;;;4.90;52.91;102276.63;5191068;28;20607;-77
2022/03/01 08:41:02;;;;;;;3.67;2.72;;;;;;;4.86;52.90;102280.00;5178292;28;20167;-77
2022/03/01 08:43:33;;;;;;;1.90;1.80;;;;;;;5.02;53.24;102284.69;5199159;28;20029;-76
2022/03/01 08:46:03;;;;;;;4.25;2.47;;;;;;;4.99;52.75;102278.53;5215965;28;20710;-78
2022/03/01 08:48:34;;;;;;;1.20;1.20;;;;;;;5.08;52.82;102281.34;5184480;28;20123;-78
2022/03/01 08:51:05;;;;;;;1.50;1.40;;;;;;;5.12;52.68;102283.19;5200724;28;20056;-77
2022/03/01 08:53:38;;;;;;;2.00;1.90;;;;;;;5.20;53.02;102296.34;5202972;28;20033;-77
2022/03/01 08:56:10;;;;;;;1.60;1.52;;;;;;;5.29;52.90;102293.91;5226847;28;20048;-78
2022/03/01 08:58:42;;;;;;;1.88;1.33;;;;;;;5.21;52.69;102292.88;5186225;28;20676;-78
2022/03/01 09:01:14;;;;;;;1.95;1.85;;;;;;;5.41;53.18;102305.44;5235057;28;20473;-79
2022/03/01 09:03:45;;;;;;;1.30;1.30;;;;;;;5.40;52.33;102308.88;5207185;28;20028;-77
2022/03/01 09:06:18;;;;;;;7.03;2.28;;;;;;;5.55;53.05;102303.06;5202710;28;20114;-77
2022/03/01 09:08:48;;;;;;;1.30;1.20;;;;;;;5.65;52.60;102295.50;5234328;28;20108;-81
2022/03/01 09:11:19;;;;;;;1.38;1.35;;;;;;;5.60;52.19;102291.03;5180568;28;20128;-77
2022/03/01 09:13:50;;;;;;;1.55;1.45;;;;;;;5.62;52.17;102290.22;5210723;28;20087;-80
2022/03/01 09:16:20;;;;;;;1.10;1.10;;;;;;;5.71;52.73;102280.81;5204169;28;20439;-77
2022/03/01 09:18:54;;;;;;;0.80;0.80;;;;;;;5.70;52.55;102271.25;5220537;28;20028;-80
2022/03/01 09:21:24;;;;;;;1.05;1.02;;;;;;;5.66;51.36;102270.31;5199429;28;20045;-78
2022/03/01 09:23:55;;;;;;;2.83;2.45;;;;;;;5.58;52.73;102283.19;5190442;28;20055;-81
2022/03/01 09:26:25;;;;;;;1.27;1.27;;;;;;;5.71;52.65;102293.84;5183700;28;20033;-77
2022/03/01 09:28:56;;;;;;;0.60;0.60;;;;;;;5.78;51.92;102282.69;5198858;28;20039;-77
2022/03/01 09:31:30;;;;;;;1.58;1.50;;;;;;;5.83;53.12;102263.69;5191053;28;20040;-79
2022/03/01 09:34:01;;;;;;;1.17;1.02;;;;;;;5.80;52.42;102270.56;5219761;28;20074;-76
2022/03/01 09:36:34;;;;;;;1.73;1.63;;;;;;;5.82;52.52;102281.91;5225577;28;20071;-80
2022/03/01 09:39:10;;;;;;;2.95;2.25;;;;;;;5.97;52.77;102287.38;5181912;28;20039;-77
2022/03/01 09:41:40;;;;;;;1.30;1.25;;;;;;;6.08;51.73;102284.06;5208539;28;20040;-77
2022/03/01 09:44:12;;;;;;;1.08;1.05;;;;;;;5.99;52.11;102290.88;5202299;28;20024;-81
2022/03/01 09:46:46;;;;;;;4.32;1.90;;;;;;;5.84;51.16;102290.59;5215958;28;20066;-78
2022/03/01 09:49:25;;;;;;;1.98;1.88;;;;;;;5.89;51.55;102283.75;5197012;28;20112;-80
2022/03/01 09:51:56;;;;;;;0.88;0.88;;;;;;;6.05;52.14;102284.91;5188430;28;20205;-78
2022/03/01 09:54:28;;;;;;;0.70;0.70;;;;;;;6.13;50.97;102279.84;5205190;28;20045;-78
2022/03/01 09:56:59;;;;;;;4.77;4.10;;;;;;;6.26;51.26;102275.72;5195756;28;20084;-77
2022/03/01 09:59:33;;;;;;;0.55;0.55;;;;;;;6.26;52.17;102276.56;5205797;28;20363;-81
2022/03/01 10:02:06;;;;;;;0.85;0.85;;;;;;;6.36;51.96;102279.31;5237666;28;20115;-77
2022/03/01 10:04:50;;;;;;;2.85;2.58;;;;;;;6.43;51.50;102281.16;5206997;28;20045;-79
2022/03/01 10:07:26;;;;;;;5.15;1.80;;;;;;;6.43;51.46;102286.38;5222698;28;20029;-80
2022/03/01 10:10:16;;;;;;;1.85;1.73;;;;;;;6.58;51.58;102286.59;5183587;28;20541;-78
2022/03/01 10:12:54;;;;;;;2.33;1.83;;;;;;;6.59;52.32;102290.97;5197739;28;20020;-77
2022/03/01 10:15:29;;;;;;;1.27;1.27;;;;;;;6.64;49.58;102290.19;5183117;28;20056;-78
2022/03/01 10:18:10;;;;;;;0.82;0.82;;;;;;;6.69;50.64;102288.50;5227580;28;20017;-79
2022/03/01 10:20:46;;;;;;;1.58;1.48;;;;;;;6.83;49.24;102286.09;5193921;28;20041;-77
2022/03/01 10:23:23;;;;;;;1.80;1.70;;;;;;;6.71;48.74;102289.41;5210054;28;20040;-79
2022/03/01 10:25:54;;;;;;;0.70;0.70;;;;;;;6.84;51.04;102288.72;5193015;28;20033;-79
2022/03/01 10:28:36;;;;;;;0.70;0.70;;;;;;;7.03;51.49;102283.75;5197826;28;20033;-79
2022/03/01 10:31:26;;;;;;;1.42;1.33;;;;;;;6.94;49.57;102289.72;5201823;28;20048;-77
2022/03/01 10:34:07;;;;;;;0.52;0.52;;;;;;;7.05;50.22;102280.28;5223558;28;20398;-77
2022/03/01 10:36:52;;;;;;;2.08;1.98;;;;;;;7.03;48.36;102287.22;5180394;28;20079;-79
2022/03/01 10:39:30;;;;;;;1.15;1.15;;;;;;;7.14;50.08;102291.69;5216294;28;20052;-77
2022/03/01 10:42:08;;;;;;;1.75;1.65;;;;;;;7.24;50.35;102299.66;5195372;28;20128;-77
2022/03/01 10:44:38;;;;;;;1.33;1.25;;;;;;;7.28;51.44;102299.72;5200267;28;20600;-79
2022/03/01 10:47:18;;;;;;;3.60;2.45;;;;;;;7.35;51.33;102296.31;5194989;28;20072;-79
2022/03/01 10:50:00;;;;;;;1.80;1.70;;;;;;;7.30;47.53;102304.09;5197777;28;20041;-80
2022/03/01 10:52:33;;;;;;;1.88;1.38;;;;;;;7.31;47.35;102299.75;5208073;28;20083;-81
2022/03/01 10:55:05;;;;;;;1.55;1.40;;;;;;;7.45;50.25;102298.16;5204892;28;20052;-77
2022/03/01 10:57:37;;;;;;;1.63;1.52;;;;;;;7.54;49.42;102293.06;5219146;28;20032;-78
2022/03/01 11:00:21;;;;;;;3.42;1.75;;;;;;;7.55;49.26;102294.81;5233290;28;20329;-79
2022/03/01 11:02:51;;;;;;;0.90;0.90;;;;;;;7.64;47.91;102295.78;5218019;28;20139;-79
2022/03/01 11:05:23;;;;;;;4.40;2.13;;;;;;;7.71;50.09;102295.84;5207316;28;20490;-77
2022/03/01 11:07:54;;;;;;;1.77;1.67;;;;;;;7.76;48.79;102301.09;5222320;28;20028;-79
2022/03/01 11:10:25;;;;;;;1.00;1.00;;;;;;;7.84;47.51;102295.97;5210771;28;20041;-77
2022/03/01 11:12:58;;;;;;;1.88;1.27;;;;;;;7.85;48.33;102297.72;5206775;28;20021;-79
2022/03/01 11:15:53;;;;;;;1.73;1.63;;;;;;;7.88;48.45;102292.50;5207742;28;20032;-80
2022/03/01 11:18:55;;;;;;;1.15;1.15;;;;;;;7.94;47.83;102291.69;5199028;28;20021;-81
2022/03/01 11:21:27;;;;;;;2.80;1.52;;;;;;;8.03;47.79;102286.56;5199028;28;20041;-78
2022/03/01 11:23:58;;;;;;;2.38;1.20;;;;;;;7.95;47.79;102278.63;5225642;28;20034;-82
2022/03/01 11:26:37;;;;;;;1.58;1.48;;;;;;;7.99;47.59;102279.53;5206040;28;20036;-79
2022/03/01 11:29:14;;;;;;;2.03;1.92;;;;;;;8.13;49.86;102277.94;5183911;28;20031;-81
2022/03/01 11:31:57;;;;;;;1.63;1.52;;;;;;;8.07;48.78;102277.84;5225833;28;20028;-77
2022/03/01 11:34:28;;;;;;;3.43;3.17;;;;;;;8.12;46.83;102272.66;5195120;28;20056;-80
2022/03/01 11:36:59;;;;;;;1.20;1.13;;;;;;;8.29;49.15;102267.59;5220352;28;20657;-79
2022/03/01 11:39:38;;;;;;;0.85;0.85;;;;;;;8.35;48.40;102272.84;5186941;28;20033;-78
2022/03/01 11:42:18;;;;;;;3.63;2.05;;;;;;;8.36;48.17;102274.59;5218411;28;20430;-78
2022/03/01 11:44:51;;;;;;;4.55;3.05;;;;;;;8.35;47.01;102257.16;5208600;28;20037;-80
2022/03/01 11:47:23;;;;;;;;;;;;;;;8.48;48.00;102255.53;5217812;28;20021;-78
2022/03/01 11:49:54;;;;;;;0.75;0.75;;;;;;;8.47;47.07;102252.03;5184926;28;19920;-80
2022/03/01 11:52:26;;;;;;;1.40;1.30;;;;;;;8.49;47.27;102250.31;5203497;28;20379;-81
2022/03/01 11:54:58;;;;;;;4.32;1.75;;;;;;;8.44;47.44;102254.59;5201733;28;20055;-77
2022/03/01 11:57:29;;;;;;;2.35;2.17;;;;;;;8.42;47.05;102245.88;5207421;28;20089;-77
2022/03/01 12:00:04;;;;;;;2.65;1.85;;;;;;;8.49;46.35;102245.06;5213058;28;21336;-78